createdAt,value
2023-02-17T00:01:34.792Z,35.20
2023-02-17T00:04:02.304Z,31.55
2023-02-17T00:06:32.408Z,34.05
2023-02-17T00:09:00.600Z,35.67
2023-02-17T00:11:28.859Z,35.00
2023-02-17T00:13:56.667Z,45.78
2023-02-17T00:16:26.628Z,36.83
2023-02-17T00:18:59.230Z,49.17
2023-02-17T00:21:29.534Z,46.08
2023-02-17T00:23:57.702Z,44.63
2023-02-17T00:26:24.791Z,42.42
2023-02-17T00:28:52.013Z,44.83
2023-02-17T00:31:24.261Z,44.20
2023-02-17T00:33:54.618Z,45.83
2023-02-17T00:36:21.733Z,40.58
2023-02-17T00:38:49.722Z,42.60
2023-02-17T00:41:18.759Z,47.53
2023-02-17T00:43:46.453Z,44.60
2023-02-17T00:46:16.068Z,42.47
2023-02-17T00:48:43.559Z,43.80
2023-02-17T00:51:11.463Z,40.97
2023-02-17T00:53:38.680Z,32.95
2023-02-17T00:56:07.938Z,45.05
2023-02-17T00:58:36.184Z,31.00
2023-02-17T01:01:03.831Z,30.75
2023-02-17T01:03:31.779Z,37.72
2023-02-17T01:05:59.307Z,36.97
2023-02-17T01:08:26.675Z,37.30
2023-02-17T01:10:54.358Z,36.00
2023-02-17T01:13:21.837Z,38.55
2023-02-17T01:15:51.399Z,37.42
2023-02-17T01:18:21.377Z,43.28
2023-02-17T01:20:50.927Z,42.83
2023-02-17T01:23:18.301Z,40.85
2023-02-17T01:25:47.477Z,38.67
2023-02-17T01:28:20.266Z,41.38
2023-02-17T01:30:48.402Z,38.50
2023-02-17T01:33:16.078Z,45.63
2023-02-17T01:35:43.140Z,40.03
2023-02-17T01:38:12.633Z,34.20
2023-02-17T01:40:47.757Z,39.00
2023-02-17T01:43:17.345Z,35.70
2023-02-17T01:46:07.737Z,34.53
2023-02-17T01:48:43.259Z,35.10
2023-02-17T01:51:20.837Z,35.85
2023-02-17T01:53:56.181Z,34.90
2023-02-17T01:56:25.138Z,35.63
2023-02-17T01:59:01.416Z,34.72
2023-02-17T02:01:31.869Z,34.95
2023-02-17T02:04:03.748Z,27.98
2023-02-17T02:06:32.343Z,36.78
2023-02-17T02:09:19.026Z,31.58
2023-02-17T02:11:49.387Z,37.75
2023-02-17T02:14:20.196Z,37.92
2023-02-17T02:17:00.623Z,31.95
2023-02-17T02:19:39.647Z,35.63
2023-02-17T02:22:31.529Z,32.78
2023-02-17T02:25:26.556Z,35.33
2023-02-17T02:28:18.685Z,33.33
2023-02-17T02:31:04.534Z,41.00
2023-02-17T02:36:24.628Z,32.63
2023-02-17T02:39:06.763Z,35.72
2023-02-17T02:41:58.410Z,32.90
2023-02-17T02:44:27.664Z,36.47
2023-02-17T02:47:07.083Z,40.45
2023-02-17T02:49:36.864Z,34.35
2023-02-17T02:52:36.491Z,38.10
2023-02-17T02:55:10.346Z,34.40
2023-02-17T02:57:46.341Z,34.85
2023-02-17T03:00:45.694Z,31.13
2023-02-17T03:03:26.377Z,30.45
2023-02-17T03:06:05.165Z,26.90
2023-02-17T03:08:38.986Z,28.13
2023-02-17T03:11:07.009Z,27.20
2023-02-17T03:13:39.816Z,24.92
2023-02-17T03:16:12.170Z,32.10
2023-02-17T03:18:39.110Z,24.17
2023-02-17T03:21:29.689Z,28.50
2023-02-17T03:23:56.786Z,23.05
2023-02-17T03:26:23.802Z,29.33
2023-02-17T03:28:51.036Z,24.60
2023-02-17T03:31:18.070Z,24.58
2023-02-17T03:33:45.143Z,25.10
2023-02-17T03:36:12.186Z,21.27
2023-02-17T03:38:40.543Z,20.02
2023-02-17T03:41:07.811Z,20.52
2023-02-17T03:43:35.726Z,22.40
2023-02-17T03:46:02.705Z,22.05
2023-02-17T03:48:30.069Z,19.50
2023-02-17T03:50:57.001Z,24.65
2023-02-17T03:53:24.093Z,21.55
2023-02-17T03:55:51.296Z,19.13
2023-02-17T03:58:18.338Z,25.08
2023-02-17T04:00:45.598Z,18.55
2023-02-17T04:03:12.890Z,15.85
2023-02-17T04:05:39.874Z,18.23
2023-02-17T04:08:06.899Z,19.88
2023-02-17T04:10:33.840Z,20.77
2023-02-17T04:13:01.180Z,19.17
2023-02-17T04:15:30.226Z,15.88
2023-02-17T04:17:57.211Z,27.42
2023-02-17T04:20:24.685Z,20.52
2023-02-17T04:22:51.750Z,17.48
2023-02-17T04:25:18.944Z,19.40
2023-02-17T04:27:46.097Z,19.92
2023-02-17T04:30:14.070Z,14.50
2023-02-17T04:32:41.110Z,19.65
2023-02-17T04:35:08.371Z,17.65
2023-02-17T04:37:35.444Z,18.00
2023-02-17T04:40:02.521Z,16.17
2023-02-17T04:42:29.695Z,16.95
2023-02-17T04:44:56.684Z,19.83
2023-02-17T04:47:23.684Z,19.83
2023-02-17T04:49:51.113Z,23.13
2023-02-17T04:52:18.019Z,19.95
2023-02-17T04:54:44.909Z,22.05
2023-02-17T04:57:11.999Z,23.17
2023-02-17T04:59:39.218Z,21.63
2023-02-17T05:02:06.384Z,19.17
2023-02-17T05:04:34.168Z,17.98
2023-02-17T05:07:01.677Z,16.02
2023-02-17T05:09:28.745Z,16.02
2023-02-17T05:11:55.847Z,15.65
2023-02-17T05:14:22.833Z,19.27
2023-02-17T05:16:49.856Z,16.67
2023-02-17T05:19:16.744Z,18.85
2023-02-17T05:21:43.757Z,18.90
2023-02-17T05:24:11.011Z,18.77
2023-02-17T05:26:38.158Z,17.02
2023-02-17T05:29:05.180Z,20.23
2023-02-17T05:31:32.328Z,18.30
2023-02-17T05:33:59.264Z,17.17
2023-02-17T05:36:26.371Z,17.75
2023-02-17T05:38:53.284Z,17.67
2023-02-17T05:41:21.852Z,16.50
2023-02-17T05:43:48.836Z,17.02
2023-02-17T05:46:16.143Z,16.38
2023-02-17T05:48:44.502Z,14.27
2023-02-17T05:51:14.081Z,16.10
2023-02-17T05:53:40.977Z,15.55
2023-02-17T05:56:08.174Z,17.92
2023-02-17T05:58:35.582Z,14.30
2023-02-17T06:01:02.451Z,15.50
2023-02-17T06:03:29.787Z,14.98
2023-02-17T06:05:56.802Z,13.73
2023-02-17T06:08:24.016Z,11.88
2023-02-17T06:10:53.913Z,13.30
2023-02-17T06:13:21.696Z,13.27
2023-02-17T06:15:48.672Z,12.52
2023-02-17T06:18:16.244Z,14.10
2023-02-17T06:20:43.267Z,11.93
2023-02-17T06:23:10.318Z,12.35
2023-02-17T06:25:37.435Z,15.82
2023-02-17T06:28:04.996Z,13.10
2023-02-17T06:30:32.091Z,14.45
2023-02-17T06:32:59.470Z,16.50
2023-02-17T06:35:26.853Z,16.60
2023-02-17T06:37:53.993Z,17.27
2023-02-17T06:40:21.046Z,15.07
2023-02-17T06:42:47.976Z,14.90
2023-02-17T06:45:15.107Z,15.98
2023-02-17T06:47:42.192Z,13.27
2023-02-17T06:50:10.077Z,14.48
2023-02-17T06:52:37.399Z,13.30
2023-02-17T06:55:06.878Z,13.18
2023-02-17T06:57:34.027Z,13.60
2023-02-17T07:00:00.979Z,18.20
2023-02-17T07:02:28.544Z,13.95
2023-02-17T07:04:55.589Z,15.18
2023-02-17T07:07:22.576Z,16.13
2023-02-17T07:09:49.774Z,13.43
2023-02-17T07:12:16.868Z,12.13
2023-02-17T07:14:43.819Z,11.75
2023-02-17T07:17:10.956Z,13.60
2023-02-17T07:19:38.035Z,12.75
2023-02-17T07:22:05.137Z,13.70
2023-02-17T07:24:34.030Z,13.20
2023-02-17T07:27:02.534Z,13.73
2023-02-17T07:29:29.819Z,12.60
2023-02-17T07:31:57.290Z,12.57
2023-02-17T07:34:24.555Z,11.55
2023-02-17T07:36:51.764Z,11.75
2023-02-17T07:39:18.776Z,12.32
2023-02-17T07:41:45.730Z,11.50
2023-02-17T07:44:14.010Z,11.68
2023-02-17T07:46:41.128Z,10.65
2023-02-17T07:49:08.718Z,11.52
2023-02-17T07:51:36.091Z,12.93
2023-02-17T07:54:03.334Z,16.02
2023-02-17T07:56:31.057Z,13.82
2023-02-17T07:58:58.264Z,14.85
2023-02-17T08:01:26.224Z,18.73
2023-02-17T08:03:53.518Z,20.08
2023-02-17T08:06:24.469Z,27.13
2023-02-17T08:09:11.368Z,25.30
2023-02-17T08:11:57.937Z,21.25
2023-02-17T08:14:27.212Z,23.23
2023-02-17T08:16:54.622Z,22.95
2023-02-17T08:19:22.697Z,31.33
2023-02-17T08:21:50.032Z,20.27
2023-02-17T08:24:17.440Z,17.52
2023-02-17T08:26:44.615Z,19.70
2023-02-17T08:29:11.910Z,25.15
2023-02-17T08:31:39.317Z,22.10
2023-02-17T08:34:09.650Z,24.05
2023-02-17T08:36:37.743Z,28.92
2023-02-17T08:39:10.251Z,27.65
2023-02-17T08:41:38.903Z,27.75
2023-02-17T08:44:12.438Z,31.38
2023-02-17T08:46:40.489Z,23.63
2023-02-17T08:49:08.758Z,35.65
2023-02-17T08:51:36.182Z,26.23
2023-02-17T08:54:05.167Z,26.38
2023-02-17T08:56:33.219Z,28.52
2023-02-17T08:59:00.656Z,25.90
2023-02-17T09:01:27.718Z,25.38
2023-02-17T09:03:57.274Z,24.13
2023-02-17T09:06:25.114Z,20.55
2023-02-17T09:08:52.099Z,17.52
2023-02-17T09:11:20.938Z,22.85
2023-02-17T09:13:48.280Z,19.35
2023-02-17T09:16:15.674Z,18.45
2023-02-17T09:18:42.639Z,22.10
2023-02-17T09:21:12.898Z,18.38
2023-02-17T09:23:40.960Z,15.07
2023-02-17T09:26:10.646Z,18.45
2023-02-17T09:28:38.234Z,14.38
2023-02-17T09:31:25.956Z,13.20
2023-02-17T09:33:53.485Z,15.75
2023-02-17T09:36:24.154Z,14.68
2023-02-17T09:38:52.283Z,13.60
2023-02-17T09:41:39.662Z,17.63
2023-02-17T09:44:25.252Z,22.23
2023-02-17T09:47:16.767Z,21.80
2023-02-17T09:49:50.058Z,19.02
2023-02-17T09:52:29.665Z,19.95
2023-02-17T09:55:07.763Z,17.50
2023-02-17T09:57:45.305Z,21.92
2023-02-17T10:00:15.329Z,22.02
2023-02-17T10:02:58.354Z,26.20
2023-02-17T10:05:30.132Z,20.00
2023-02-17T10:08:11.315Z,23.35
2023-02-17T10:11:26.481Z,24.98
2023-02-17T10:13:58.244Z,23.63
2023-02-17T10:16:34.851Z,27.25
2023-02-17T10:19:20.804Z,27.23
2023-02-17T10:21:57.767Z,20.92
2023-02-17T10:24:25.388Z,24.25
2023-02-17T10:27:11.252Z,21.67
2023-02-17T10:33:01.952Z,21.67
2023-02-17T10:35:41.152Z,29.35
2023-02-17T10:38:34.359Z,20.50
2023-02-17T10:41:04.819Z,22.85
2023-02-17T10:43:33.370Z,17.92
2023-02-17T10:46:03.010Z,12.93
2023-02-17T10:48:39.387Z,16.05
2023-02-17T10:51:07.894Z,16.00
2023-02-17T10:53:38.438Z,15.55
2023-02-17T10:56:23.734Z,14.13
2023-02-17T10:58:59.735Z,13.10
2023-02-17T11:01:29.263Z,12.65
2023-02-17T11:04:14.676Z,21.65
2023-02-17T11:06:51.861Z,13.38
2023-02-17T11:09:32.917Z,18.58
2023-02-17T11:12:01.753Z,13.02
2023-02-17T11:14:31.964Z,17.05
2023-02-17T11:17:13.129Z,10.88
2023-02-17T11:19:40.463Z,11.82
2023-02-17T11:22:30.339Z,14.43
2023-02-17T11:25:06.802Z,13.35
2023-02-17T11:27:35.164Z,11.20
2023-02-17T11:30:14.081Z,11.80
2023-02-17T11:32:41.209Z,11.05
2023-02-17T11:35:36.152Z,15.73
2023-02-17T11:38:11.930Z,15.02
2023-02-17T11:40:39.142Z,13.20
2023-02-17T11:43:06.632Z,10.95
2023-02-17T11:46:05.752Z,9.02
2023-02-17T11:48:54.920Z,9.45
2023-02-17T11:52:07.193Z,20.10
2023-02-17T11:54:57.319Z,17.00
2023-02-17T11:58:08.290Z,21.20
2023-02-17T12:00:45.748Z,22.45
2023-02-17T12:03:36.835Z,16.70
2023-02-17T12:06:29.106Z,12.23
2023-02-17T12:09:22.946Z,13.43
2023-02-17T12:12:12.725Z,17.80
2023-02-17T12:15:02.879Z,11.25
2023-02-17T12:17:37.019Z,10.02
2023-02-17T12:20:36.893Z,14.35
2023-02-17T12:23:16.768Z,14.35
2023-02-17T12:26:06.155Z,13.02
2023-02-17T12:28:41.168Z,15.93
2023-02-17T12:31:24.672Z,16.48
2023-02-17T12:33:54.802Z,13.23
2023-02-17T12:36:25.924Z,17.73
2023-02-17T12:39:00.850Z,12.90
2023-02-17T12:41:38.560Z,11.90
2023-02-17T12:44:18.580Z,12.20
2023-02-17T12:46:54.288Z,11.23
2023-02-17T12:49:37.784Z,13.63
2023-02-17T12:52:19.904Z,20.20
2023-02-17T12:54:58.008Z,15.77
2023-02-17T12:57:43.300Z,13.00
2023-02-17T13:00:38.857Z,21.13
2023-02-17T13:03:08.702Z,14.63
2023-02-17T13:06:07.122Z,13.10
2023-02-17T13:08:44.938Z,13.45
2023-02-17T13:11:14.570Z,11.07
2023-02-17T13:13:41.800Z,15.30
2023-02-17T13:16:14.541Z,12.02
2023-02-17T13:18:44.592Z,17.42
2023-02-17T13:21:22.026Z,16.77
2023-02-17T13:24:02.880Z,14.43
2023-02-17T13:26:33.322Z,13.68
2023-02-17T13:29:12.289Z,8.18
2023-02-17T13:31:54.937Z,14.98
2023-02-17T13:34:43.943Z,15.57
2023-02-17T13:37:31.876Z,11.18
2023-02-17T13:40:19.961Z,13.20
2023-02-17T13:42:49.461Z,12.57
2023-02-17T13:45:33.900Z,11.95
2023-02-17T13:48:31.739Z,17.25
2023-02-17T13:51:04.565Z,12.98
2023-02-17T13:53:40.127Z,17.08
2023-02-17T13:58:41.938Z,21.33
2023-02-17T14:01:16.808Z,15.50
2023-02-17T14:03:50.882Z,11.40
2023-02-17T14:06:38.756Z,14.60
2023-02-17T14:09:33.346Z,10.90
2023-02-17T14:12:03.751Z,13.30
2023-02-17T14:14:36.703Z,11.35
2023-02-17T14:17:14.408Z,10.10
2023-02-17T14:19:46.720Z,15.52
2023-02-17T14:22:26.517Z,13.90
2023-02-17T14:25:05.829Z,15.05
2023-02-17T14:27:48.021Z,15.10
2023-02-17T14:30:27.282Z,13.20
2023-02-17T14:33:16.512Z,11.60
2023-02-17T14:35:59.052Z,14.88
2023-02-17T14:38:32.561Z,20.33
2023-02-17T14:41:01.317Z,13.70
2023-02-17T14:43:28.531Z,14.07
2023-02-17T14:45:55.864Z,18.90
2023-02-17T14:48:23.237Z,12.50
2023-02-17T14:50:50.325Z,14.68
2023-02-17T14:53:21.163Z,13.82
2023-02-17T14:55:58.530Z,18.75
2023-02-17T14:58:27.179Z,17.63
2023-02-17T15:00:54.150Z,14.73
2023-02-17T15:03:21.696Z,17.92
2023-02-17T15:05:48.856Z,16.05
2023-02-17T15:08:18.735Z,17.58
2023-02-17T15:10:46.212Z,10.65
2023-02-17T15:13:19.220Z,18.92
2023-02-17T15:15:47.897Z,14.35
2023-02-17T15:18:17.701Z,16.42
2023-02-17T15:20:47.180Z,14.75
2023-02-17T15:23:20.093Z,15.35
2023-02-17T15:25:48.256Z,17.05
2023-02-17T15:28:18.518Z,12.60
2023-02-17T15:30:52.946Z,12.98
2023-02-17T15:33:21.170Z,18.23
2023-02-17T15:35:51.392Z,15.13
2023-02-17T15:38:18.523Z,9.43
2023-02-17T15:40:45.741Z,16.85
2023-02-17T15:43:16.936Z,14.60
2023-02-17T15:45:44.136Z,15.48
2023-02-17T15:48:31.974Z,15.32
2023-02-17T15:50:58.983Z,17.35
2023-02-17T15:53:26.168Z,17.60
2023-02-17T15:55:53.761Z,15.40
2023-02-17T15:58:23.032Z,21.85
2023-02-17T16:00:51.523Z,14.23
2023-02-17T16:03:18.717Z,15.75
2023-02-17T16:05:46.051Z,20.25
2023-02-17T16:08:13.018Z,17.20
2023-02-17T16:10:42.517Z,14.85
2023-02-17T16:13:15.881Z,21.88
2023-02-17T16:15:43.371Z,13.20
2023-02-17T16:18:21.908Z,16.45
2023-02-17T16:20:49.439Z,19.50
2023-02-17T16:23:16.426Z,16.70
2023-02-17T16:25:45.593Z,17.15
2023-02-17T16:28:22.505Z,16.23
2023-02-17T16:30:50.928Z,20.33
2023-02-17T16:33:18.252Z,14.93
2023-02-17T16:35:45.626Z,24.38
2023-02-17T16:38:22.535Z,17.30
2023-02-17T16:40:52.043Z,15.15
2023-02-17T16:43:27.983Z,21.50
2023-02-17T16:45:58.284Z,17.08
2023-02-17T16:48:28.300Z,18.20
2023-02-17T16:50:57.091Z,22.58
2023-02-17T16:53:25.358Z,20.02
2023-02-17T16:55:54.364Z,17.40
2023-02-17T16:58:23.894Z,18.08
2023-02-17T17:00:53.508Z,17.33
2023-02-17T17:03:24.459Z,20.55
2023-02-17T17:05:52.651Z,20.63
2023-02-17T17:08:21.751Z,21.63
2023-02-17T17:10:50.006Z,18.38
2023-02-17T17:13:17.310Z,22.85
2023-02-17T17:15:45.646Z,18.98
2023-02-17T17:18:21.311Z,20.88
2023-02-17T17:20:49.492Z,24.45
2023-02-17T17:23:17.046Z,27.88
2023-02-17T17:25:48.882Z,25.52
2023-02-17T17:28:17.976Z,22.08
2023-02-17T17:30:45.253Z,21.70
2023-02-17T17:33:12.236Z,19.90
2023-02-17T17:35:39.265Z,19.58
2023-02-17T17:38:06.867Z,26.02
2023-02-17T17:40:49.139Z,25.13
2023-02-17T17:43:21.964Z,20.45
2023-02-17T17:45:50.813Z,26.52
2023-02-17T17:48:18.359Z,32.70
2023-02-17T17:50:46.111Z,27.00
2023-02-17T17:53:13.206Z,29.20
2023-02-17T17:55:40.283Z,36.33
2023-02-17T17:58:08.656Z,31.33
2023-02-17T18:00:35.949Z,32.40
2023-02-17T18:03:03.927Z,34.03
2023-02-17T18:05:32.652Z,37.97
2023-02-17T18:08:00.658Z,44.80
2023-02-17T18:10:27.951Z,34.97
2023-02-17T18:12:55.231Z,40.28
2023-02-17T18:15:22.303Z,40.17
2023-02-17T18:17:49.973Z,48.47
2023-02-17T18:20:17.563Z,41.95
2023-02-17T18:22:44.722Z,32.67
2023-02-17T18:25:12.789Z,43.05
2023-02-17T18:27:42.034Z,45.90
2023-02-17T18:30:10.724Z,47.55
2023-02-17T18:32:38.089Z,35.50
2023-02-17T18:35:05.871Z,42.25
2023-02-17T18:37:33.842Z,46.90
2023-02-17T18:40:02.771Z,36.45
2023-02-17T18:42:30.027Z,47.50
2023-02-17T18:44:57.135Z,52.60
2023-02-17T18:47:24.177Z,50.47
2023-02-17T18:49:51.318Z,43.55
2023-02-17T18:52:18.561Z,50.08
2023-02-17T18:54:45.790Z,46.92
2023-02-17T18:57:13.052Z,38.58
2023-02-17T18:59:40.467Z,48.28
2023-02-17T19:02:09.328Z,43.72
2023-02-17T19:04:37.293Z,46.65
2023-02-17T19:07:06.374Z,43.03
2023-02-17T19:09:35.554Z,39.67
2023-02-17T19:12:03.082Z,43.72
2023-02-17T19:14:33.955Z,34.28
2023-02-17T19:17:01.013Z,38.50
2023-02-17T19:19:30.412Z,43.63
2023-02-17T19:21:58.271Z,42.35
2023-02-17T19:24:25.258Z,44.97
2023-02-17T19:26:54.684Z,44.53
2023-02-17T19:29:22.929Z,52.67
2023-02-17T19:31:50.174Z,56.42
2023-02-17T19:34:20.048Z,52.30
2023-02-17T19:36:50.414Z,47.40
2023-02-17T19:39:17.498Z,61.55
2023-02-17T19:41:44.697Z,52.25
2023-02-17T19:44:14.254Z,46.00
2023-02-17T19:46:42.726Z,48.10
2023-02-17T19:49:09.739Z,55.95
2023-02-17T19:51:38.545Z,56.95
2023-02-17T19:54:06.108Z,63.35
2023-02-17T19:56:36.488Z,58.83
2023-02-17T19:59:03.575Z,62.05
2023-02-17T20:01:31.969Z,72.60
2023-02-17T20:04:01.673Z,55.95
2023-02-17T20:06:31.634Z,58.60
2023-02-17T20:09:02.041Z,68.07
2023-02-17T20:11:30.124Z,64.65
2023-02-17T20:13:58.896Z,69.07
2023-02-17T20:16:26.068Z,56.92
2023-02-17T20:18:55.317Z,65.07
2023-02-17T20:21:29.337Z,56.13
2023-02-17T20:23:57.953Z,70.75
2023-02-17T20:26:27.766Z,56.60
2023-02-17T20:28:55.994Z,66.07
2023-02-17T20:31:24.476Z,61.90
2023-02-17T20:33:51.576Z,60.33
2023-02-17T20:36:19.351Z,67.45
2023-02-17T20:38:46.836Z,67.57
2023-02-17T20:41:18.466Z,56.60
2023-02-17T20:43:45.833Z,58.13
2023-02-17T20:46:24.438Z,60.05
2023-02-17T20:48:52.687Z,68.50
2023-02-17T20:51:20.386Z,69.45
2023-02-17T20:53:47.633Z,80.57
2023-02-17T20:56:21.004Z,68.40
2023-02-17T20:58:48.530Z,71.80
2023-02-17T21:01:15.777Z,66.00
2023-02-17T21:03:42.880Z,58.90
2023-02-17T21:06:31.544Z,58.63
2023-02-17T21:09:13.266Z,62.20
2023-02-17T21:11:40.985Z,61.80
2023-02-17T21:14:09.292Z,64.18
2023-02-17T21:16:37.743Z,83.78
2023-02-17T21:19:05.481Z,67.78
2023-02-17T21:21:32.864Z,75.82
2023-02-17T21:24:00.622Z,72.47
2023-02-17T21:26:27.765Z,76.32
2023-02-17T21:28:55.974Z,79.13
2023-02-17T21:31:23.192Z,75.30
2023-02-17T21:33:50.231Z,66.97
2023-02-17T21:36:18.727Z,71.53
2023-02-17T21:38:46.915Z,68.72
2023-02-17T21:41:25.072Z,72.13
2023-02-17T21:44:11.092Z,72.10
2023-02-17T21:46:40.409Z,68.65
2023-02-17T21:49:08.957Z,62.15
2023-02-17T21:51:40.732Z,65.80
2023-02-17T21:54:09.430Z,65.72
2023-02-17T21:56:36.689Z,59.22
2023-02-17T21:59:04.940Z,69.50
2023-02-17T22:01:31.950Z,67.15
2023-02-17T22:03:59.348Z,65.80
2023-02-17T22:06:29.817Z,66.30
2023-02-17T22:08:58.236Z,75.35
2023-02-17T22:11:36.985Z,78.30
2023-02-17T22:14:14.614Z,74.75
2023-02-17T22:16:42.430Z,72.70
2023-02-17T22:19:18.014Z,81.90
2023-02-17T22:21:45.898Z,83.85
2023-02-17T22:24:13.488Z,75.55
2023-02-17T22:26:41.172Z,80.55
2023-02-17T22:29:08.468Z,82.90
2023-02-17T22:31:35.759Z,77.13
2023-02-17T22:34:07.263Z,72.00
2023-02-17T22:36:37.166Z,74.47
2023-02-17T22:39:06.712Z,83.18
2023-02-17T22:41:34.869Z,79.63
2023-02-17T22:44:06.043Z,83.53
2023-02-17T22:46:33.691Z,88.88
2023-02-17T22:49:01.062Z,83.10
2023-02-17T22:51:31.635Z,92.25
2023-02-17T22:54:00.540Z,82.07
2023-02-17T22:56:27.732Z,76.25
2023-02-17T22:59:00.814Z,75.90
2023-02-17T23:01:29.913Z,82.78
2023-02-17T23:03:56.978Z,77.90
2023-02-17T23:06:33.959Z,76.63
2023-02-17T23:09:01.989Z,79.57
2023-02-17T23:11:50.403Z,79.07
2023-02-17T23:14:32.926Z,83.80
2023-02-17T23:17:03.899Z,75.85
2023-02-17T23:19:31.743Z,80.63
2023-02-17T23:22:01.664Z,75.10
2023-02-17T23:24:30.317Z,70.13
2023-02-17T23:27:00.554Z,69.10
2023-02-17T23:29:31.023Z,70.90
2023-02-17T23:31:59.182Z,77.22
2023-02-17T23:34:27.309Z,71.07
2023-02-17T23:36:54.406Z,71.68
2023-02-17T23:39:21.391Z,69.00
2023-02-17T23:41:48.418Z,71.22
2023-02-17T23:44:16.718Z,73.88
2023-02-17T23:46:45.039Z,79.75
2023-02-17T23:49:17.109Z,69.20
2023-02-17T23:51:45.300Z,64.78
2023-02-17T23:54:12.668Z,61.50
2023-02-17T23:56:40.031Z,57.97
2023-02-17T23:59:07.045Z,58.60
